weather.gov     
National Weather Service

Terminal Aerodrome Forecast
NWS Homepage
This page is being discontinued on March 12, 2014.
The same data is available at this site. Please update your bookmarks.
Thank you, and we apologize for the inconvenience.
Please send an email to SR-SRH.Webmaster@noaa.gov with any concerns.


Current Version
Previous Version:    01  02  03  04  05  06  07  08  09  10  11  12  13  14  15  16  17  18  19  20  21  22  23  24  25  26  27  
[Printable]
994
FTUS43 KMPX 161100 RRA
TAFEAU
TAF
KEAU 161138Z 1612/1712 10015KT P6SM VCSH OVC035
     FM161400 11015G25KT 2SM -SN OVC025
     FM161600 13015G24KT P6SM OVC035
     FM162300 12014G23KT 4SM -RA BR OVC010
     FM170600 15010KT 3SM -RASN BR OVC010=


U.S. Dept. of Commerce
NOAA National Weather Service
1325 East West Highway
Silver Spring, MD 20910
E-mail: w-nws.webmaster@noaa.gov
Page last modified: May 16, 2007
NATIONAL WEATHER SERVICE: for Safety, for Work, for Fun - FOR LIFE